SVA4323 OERK-OEJN
Flight info
| Callsign | SVA4323 |
|---|---|
| Flight time | 1h 26m |
| Altitude | 38000 |
| Route | DURMA G782 VEMEM |
| Aircraft | B77W/H-SDE1E2E3FGHIJ2J3J4J5M1RWXY/LB1D1 |
Departure
| Time | 2025-10-27 09:02 |
|---|---|
| Airport | King Khalid International Airport (OERK) |
Arrival
| Time | 2025-10-27 10:29 |
|---|---|
| Airport | King Abdulaziz International Airport (OEJN) |
| Time | Latitude | Longitude | Altitude | Speed | Heading |
|---|---|---|---|---|---|
| 2025-10-27 08:17 | 24.95683 | 46.70683 | 2034 ft | 0 kts | 237° |
| 2025-10-27 08:46 | 24.95685 | 46.70685 | 2045 ft | 1 kts | 234° |
| 2025-10-27 08:47 | 24.95696 | 46.70704 | 2050 ft | 2 kts | 236° |
| 2025-10-27 08:47 | 24.95716 | 46.70734 | 2048 ft | 2 kts | 230° |
| 2025-10-27 08:48 | 24.95740 | 46.70759 | 2048 ft | 2 kts | 199° |
| 2025-10-27 08:48 | 24.95767 | 46.70755 | 2048 ft | 1 kts | 150° |
| 2025-10-27 08:48 | 24.95769 | 46.70754 | 2050 ft | 0 kts | 149° |
| 2025-10-27 08:55 | 24.95736 | 46.70774 | 2055 ft | 7 kts | 150° |
| 2025-10-27 08:55 | 24.95600 | 46.70861 | 2057 ft | 16 kts | 150° |
| 2025-10-27 08:56 | 24.95407 | 46.70982 | 2057 ft | 13 kts | 150° |
| 2025-10-27 08:56 | 24.95340 | 46.71034 | 2060 ft | 10 kts | 124° |
| 2025-10-27 08:56 | 24.95391 | 46.71187 | 2059 ft | 15 kts | 59° |
| 2025-10-27 08:57 | 24.95341 | 46.71338 | 2059 ft | 14 kts | 150° |
| 2025-10-27 08:57 | 24.95129 | 46.71473 | 2059 ft | 21 kts | 150° |
| 2025-10-27 08:58 | 24.94787 | 46.71691 | 2056 ft | 18 kts | 149° |
| 2025-10-27 08:59 | 24.94564 | 46.71831 | 2057 ft | 18 kts | 152° |
| 2025-10-27 08:59 | 24.94432 | 46.71959 | 2058 ft | 9 kts | 81° |
| 2025-10-27 09:00 | 24.94553 | 46.72167 | 2050 ft | 3 kts | 5° |
| 2025-10-27 09:00 | 24.94582 | 46.72160 | 2052 ft | 6 kts | 342° |
| 2025-10-27 09:01 | 24.95293 | 46.71716 | 2054 ft | 147 kts | 330° |
| 2025-10-27 09:01 | 24.97825 | 46.70187 | 3497 ft | 223 kts | 329° |
| 2025-10-27 09:02 | 25.02350 | 46.68630 | 5826 ft | 240 kts | 349° |
| 2025-10-27 09:03 | 25.05663 | 46.67899 | 7462 ft | 246 kts | 350° |
| 2025-10-27 09:03 | 25.06798 | 46.67676 | 8007 ft | 248 kts | 351° |
| 2025-10-27 09:04 | 25.10787 | 46.66872 | 9783 ft | 251 kts | 349° |
| 2025-10-27 09:04 | 25.14413 | 46.66099 | 9965 ft | 275 kts | 349° |
| 2025-10-27 09:04 | 25.16254 | 46.65666 | 9955 ft | 262 kts | 341° |
| 2025-10-27 09:05 | 25.18971 | 46.60913 | 10007 ft | 278 kts | 268° |
| 2025-10-27 09:06 | 25.17271 | 46.56936 | 10003 ft | 298 kts | 233° |
| 2025-10-27 09:06 | 25.12537 | 46.52720 | 9995 ft | 305 kts | 187° |
| 2025-10-27 09:07 | 25.10423 | 46.52791 | 10014 ft | 307 kts | 172° |
| 2025-10-27 09:07 | 25.05838 | 46.53552 | 10495 ft | 367 kts | 171° |
| 2025-10-27 09:08 | 25.00503 | 46.54448 | 11955 ft | 392 kts | 171° |
| 2025-10-27 09:08 | 24.95052 | 46.55329 | 13939 ft | 401 kts | 171° |
| 2025-10-27 09:09 | 24.89504 | 46.56213 | 15597 ft | 409 kts | 172° |
| 2025-10-27 09:09 | 24.83788 | 46.57087 | 17123 ft | 417 kts | 176° |
| 2025-10-27 09:10 | 24.78135 | 46.55612 | 18466 ft | 425 kts | 204° |
| 2025-10-27 09:10 | 24.70109 | 46.51281 | 20336 ft | 434 kts | 226° |
| 2025-10-27 09:11 | 24.68299 | 46.48630 | 21089 ft | 434 kts | 243° |
| 2025-10-27 09:11 | 24.66176 | 46.42425 | 22615 ft | 437 kts | 252° |
| 2025-10-27 09:12 | 24.64230 | 46.36038 | 23938 ft | 444 kts | 252° |
| 2025-10-27 09:13 | 24.60174 | 46.23147 | 26479 ft | 447 kts | 251° |
| 2025-10-27 09:15 | 24.50750 | 45.93790 | 31165 ft | 453 kts | 251° |
| 2025-10-27 09:17 | 24.41863 | 45.68766 | 34874 ft | 436 kts | 244° |
| 2025-10-27 09:19 | 24.31125 | 45.45077 | 37362 ft | 430 kts | 245° |
| 2025-10-27 09:21 | 24.20590 | 45.21545 | 38057 ft | 427 kts | 245° |
| 2025-10-27 09:23 | 24.10530 | 44.99188 | 38051 ft | 428 kts | 245° |
| 2025-10-27 09:24 | 24.01245 | 44.78648 | 38049 ft | 431 kts | 245° |
| 2025-10-27 09:27 | 23.90859 | 44.51638 | 38055 ft | 428 kts | 257° |
| 2025-10-27 09:28 | 23.86151 | 44.29414 | 38051 ft | 429 kts | 257° |
| 2025-10-27 09:31 | 23.79984 | 44.00812 | 38049 ft | 430 kts | 257° |
| 2025-10-27 09:32 | 23.75133 | 43.78565 | 38049 ft | 431 kts | 257° |
| 2025-10-27 09:35 | 23.68820 | 43.49955 | 38050 ft | 432 kts | 257° |
| 2025-10-27 09:36 | 23.63855 | 43.27634 | 38048 ft | 433 kts | 256° |
| 2025-10-27 09:39 | 23.57422 | 42.98948 | 38041 ft | 433 kts | 256° |
| 2025-10-27 09:40 | 23.52374 | 42.76610 | 38038 ft | 434 kts | 256° |
| 2025-10-27 09:43 | 23.45852 | 42.47920 | 38044 ft | 434 kts | 257° |
| 2025-10-27 09:44 | 23.41236 | 42.25476 | 37943 ft | 430 kts | 261° |
| 2025-10-27 09:47 | 23.34120 | 41.96944 | 38065 ft | 439 kts | 257° |
| 2025-10-27 09:49 | 23.28731 | 41.74507 | 38071 ft | 438 kts | 251° |
| 2025-10-27 09:51 | 23.14700 | 41.48896 | 38094 ft | 438 kts | 240° |
| 2025-10-27 09:53 | 23.03122 | 41.29374 | 38106 ft | 441 kts | 240° |
| 2025-10-27 09:55 | 22.88179 | 41.04286 | 38115 ft | 439 kts | 240° |
| 2025-10-27 09:57 | 22.76552 | 40.84890 | 38128 ft | 437 kts | 240° |
| 2025-10-27 09:59 | 22.61592 | 40.60041 | 38160 ft | 438 kts | 240° |
| 2025-10-27 10:01 | 22.49926 | 40.40746 | 38148 ft | 437 kts | 240° |
| 2025-10-27 10:03 | 22.36526 | 40.18658 | 31860 ft | 456 kts | 239° |
| 2025-10-27 10:05 | 22.23038 | 39.96533 | 27242 ft | 401 kts | 238° |
| 2025-10-27 10:07 | 22.04371 | 39.93099 | 24780 ft | 373 kts | 173° |
| 2025-10-27 10:07 | 22.00136 | 39.93946 | 24100 ft | 372 kts | 172° |
| 2025-10-27 10:07 | 21.95045 | 39.94163 | 23129 ft | 361 kts | 200° |
| 2025-10-27 10:08 | 21.91164 | 39.91091 | 22319 ft | 347 kts | 236° |
| 2025-10-27 10:08 | 21.89468 | 39.86292 | 21409 ft | 345 kts | 264° |
| 2025-10-27 10:09 | 21.88485 | 39.81331 | 20610 ft | 337 kts | 251° |
| 2025-10-27 10:10 | 21.86254 | 39.74186 | 19375 ft | 335 kts | 251° |
| 2025-10-27 10:10 | 21.84842 | 39.69378 | 18524 ft | 338 kts | 252° |
| 2025-10-27 10:11 | 21.83482 | 39.64597 | 17753 ft | 335 kts | 252° |
| 2025-10-27 10:11 | 21.82921 | 39.62607 | 17472 ft | 332 kts | 252° |
| 2025-10-27 10:11 | 21.81596 | 39.57891 | 16793 ft | 326 kts | 252° |
| 2025-10-27 10:12 | 21.80284 | 39.53228 | 16096 ft | 322 kts | 252° |
| 2025-10-27 10:12 | 21.79004 | 39.48679 | 15414 ft | 317 kts | 252° |
| 2025-10-27 10:13 | 21.77743 | 39.44201 | 14963 ft | 305 kts | 252° |
| 2025-10-27 10:14 | 21.75929 | 39.37768 | 14120 ft | 295 kts | 252° |
| 2025-10-27 10:14 | 21.74740 | 39.33559 | 13480 ft | 292 kts | 252° |
| 2025-10-27 10:15 | 21.73452 | 39.29426 | 12701 ft | 287 kts | 238° |
| 2025-10-27 10:15 | 21.72101 | 39.27867 | 12175 ft | 288 kts | 212° |
| 2025-10-27 10:15 | 21.68271 | 39.27089 | 11440 ft | 283 kts | 167° |
| 2025-10-27 10:16 | 21.64654 | 39.28460 | 10316 ft | 268 kts | 159° |
| 2025-10-27 10:16 | 21.61291 | 39.29829 | 9245 ft | 253 kts | 159° |
| 2025-10-27 10:17 | 21.57991 | 39.31135 | 7914 ft | 248 kts | 159° |
| 2025-10-27 10:18 | 21.53120 | 39.33045 | 5909 ft | 246 kts | 159° |
| 2025-10-27 10:18 | 21.49894 | 39.34312 | 5034 ft | 247 kts | 160° |
| 2025-10-27 10:18 | 21.48290 | 39.34940 | 4781 ft | 243 kts | 160° |
| 2025-10-27 10:19 | 21.45159 | 39.36165 | 4179 ft | 238 kts | 160° |
| 2025-10-27 10:19 | 21.42022 | 39.37396 | 3504 ft | 238 kts | 161° |
| 2025-10-27 10:20 | 21.38980 | 39.38591 | 3092 ft | 228 kts | 161° |
| 2025-10-27 10:20 | 21.35971 | 39.39341 | 3048 ft | 218 kts | 194° |
| 2025-10-27 10:21 | 21.34068 | 39.37058 | 3053 ft | 223 kts | 263° |
| 2025-10-27 10:22 | 21.35766 | 39.32342 | 3042 ft | 234 kts | 308° |
| 2025-10-27 10:22 | 21.38219 | 39.30107 | 3028 ft | 229 kts | 326° |
| 2025-10-27 10:22 | 21.39563 | 39.29248 | 3012 ft | 227 kts | 329° |
| 2025-10-27 10:23 | 21.42399 | 39.27695 | 3051 ft | 231 kts | 335° |
| 2025-10-27 10:23 | 21.45421 | 39.26436 | 3022 ft | 233 kts | 338° |
| 2025-10-27 10:24 | 21.48495 | 39.25224 | 3015 ft | 237 kts | 339° |
| 2025-10-27 10:25 | 21.53059 | 39.23423 | 2728 ft | 233 kts | 339° |
| 2025-10-27 10:25 | 21.57564 | 39.21643 | 1861 ft | 217 kts | 339° |
| 2025-10-27 10:26 | 21.58937 | 39.21101 | 1607 ft | 202 kts | 337° |
| 2025-10-27 10:26 | 21.61540 | 39.20071 | 1067 ft | 187 kts | 338° |
| 2025-10-27 10:27 | 21.63701 | 39.19218 | 653 ft | 153 kts | 336° |
| 2025-10-27 10:27 | 21.65761 | 39.18403 | 292 ft | 160 kts | 336° |
| 2025-10-27 10:28 | 21.67766 | 39.17607 | 50 ft | 134 kts | 340° |
| 2025-10-27 10:28 | 21.68828 | 39.17186 | 49 ft | 28 kts | 341° |
| 2025-10-27 10:29 | 21.68925 | 39.16999 | 50 ft | 14 kts | 289° |
| 2025-10-27 10:29 | 21.68840 | 39.16954 | 50 ft | 9 kts | 159° |
| 2025-10-27 10:30 | 21.68709 | 39.17009 | 49 ft | 13 kts | 159° |
| 2025-10-27 10:30 | 21.68509 | 39.17079 | 48 ft | 17 kts | 162° |
| 2025-10-27 10:31 | 21.68265 | 39.17178 | 50 ft | 19 kts | 160° |
| 2025-10-27 10:31 | 21.68029 | 39.17256 | 51 ft | 14 kts | 191° |
| 2025-10-27 10:32 | 21.67845 | 39.17244 | 48 ft | 14 kts | 159° |
| 2025-10-27 10:32 | 21.67662 | 39.17317 | 53 ft | 14 kts | 157° |
| 2025-10-27 10:33 | 21.67478 | 39.17393 | 49 ft | 14 kts | 160° |
| 2025-10-27 10:34 | 21.67200 | 39.17500 | 54 ft | 14 kts | 160° |
| 2025-10-27 10:34 | 21.67103 | 39.17539 | 52 ft | 15 kts | 160° |
| 2025-10-27 10:34 | 21.66941 | 39.17518 | 55 ft | 12 kts | 250° |
| 2025-10-27 10:35 | 21.66869 | 39.17328 | 50 ft | 13 kts | 234° |
| 2025-10-27 10:35 | 21.66795 | 39.17248 | 50 ft | 1 kts | 245° |
| 2025-10-27 10:36 | 21.66788 | 39.17229 | 47 ft | 0 kts | 250° |